createdAt,value
2022-12-08T00:02:03.484Z,0.11
2022-12-08T00:04:08.814Z,0.17
2022-12-08T00:06:42.000Z,-4.60
2022-12-08T00:09:02.769Z,-5.54
2022-12-08T00:11:06.098Z,-0.16
2022-12-08T00:13:09.454Z,0.09
2022-12-08T00:15:12.777Z,-4.22
2022-12-08T00:17:17.673Z,-0.03
2022-12-08T00:19:22.699Z,-0.07
2022-12-08T00:21:26.018Z,-1.87
2022-12-08T00:23:29.768Z,0.08
2022-12-08T00:25:36.720Z,-7.06
2022-12-08T00:27:39.903Z,-4.35
2022-12-08T00:29:45.596Z,-4.42
2022-12-08T00:31:49.297Z,-1.99
2022-12-08T00:33:52.669Z,-1.14
2022-12-08T00:35:57.284Z,0.13
2022-12-08T00:38:01.178Z,0.10
2022-12-08T00:40:05.426Z,0.02
2022-12-08T00:42:14.364Z,-1.36
2022-12-08T00:44:20.029Z,0.14
2022-12-08T00:46:23.645Z,0.27
2022-12-08T00:48:26.858Z,0.24
2022-12-08T00:50:30.096Z,0.26
2022-12-08T00:52:34.749Z,-4.58
2022-12-08T00:54:38.261Z,-0.97
2022-12-08T00:56:41.517Z,-1.36
2022-12-08T00:58:44.768Z,0.35
2022-12-08T01:00:48.156Z,-1.52
2022-12-08T01:02:51.510Z,-2.06
2022-12-08T01:04:54.786Z,0.35
2022-12-08T01:06:58.064Z,-0.92
2022-12-08T01:09:03.197Z,-3.90
2022-12-08T01:11:07.576Z,0.41
2022-12-08T01:13:11.400Z,-0.92
2022-12-08T01:15:14.609Z,0.43
2022-12-08T01:17:17.788Z,-0.19
2022-12-08T01:19:21.269Z,-1.76
2022-12-08T01:21:24.777Z,0.46
2022-12-08T01:23:29.211Z,-5.09
2022-12-08T01:25:35.512Z,-0.86
2022-12-08T01:27:38.742Z,0.38
2022-12-08T01:29:41.967Z,-1.95
2022-12-08T01:31:45.160Z,-5.26
2022-12-08T01:33:48.981Z,0.20
2022-12-08T01:35:52.633Z,0.26
2022-12-08T01:37:55.977Z,0.26
2022-12-08T01:39:59.205Z,0.28
2022-12-08T01:42:06.042Z,-3.31
2022-12-08T01:44:57.306Z,0.24
2022-12-08T01:47:00.521Z,0.18
2022-12-08T01:49:08.423Z,-4.55
2022-12-08T01:51:11.747Z,-0.01
2022-12-08T01:53:21.064Z,-1.21
2022-12-08T01:55:30.153Z,0.12
2022-12-08T01:57:38.426Z,0.11
2022-12-08T01:59:48.251Z,-2.03
2022-12-08T02:01:51.610Z,-0.04
2022-12-08T02:04:00.454Z,-0.89
2022-12-08T02:06:05.050Z,-6.77
2022-12-08T02:08:11.329Z,-1.47
2022-12-08T02:10:23.445Z,-5.40
2022-12-08T02:12:26.760Z,-0.24
2022-12-08T02:14:32.258Z,-2.04
2022-12-08T02:16:44.276Z,-4.67
2022-12-08T02:19:29.635Z,-1.56
2022-12-08T02:21:32.940Z,-0.89
2022-12-08T02:23:48.537Z,-0.36
2022-12-08T02:26:34.155Z,-6.61
2022-12-08T02:29:03.360Z,-0.39
2022-12-08T02:31:20.550Z,-4.63
2022-12-08T02:34:21.972Z,-0.42
2022-12-08T02:36:28.007Z,-1.71
2022-12-08T02:38:44.500Z,-4.15
2022-12-08T02:40:59.048Z,-0.41
2022-12-08T02:43:07.154Z,-2.39
2022-12-08T02:45:16.219Z,-0.44
2022-12-08T02:47:22.000Z,-0.53
2022-12-08T02:49:31.637Z,-2.42
2022-12-08T02:51:35.033Z,-0.75
2022-12-08T02:53:38.620Z,-0.78
2022-12-08T02:56:01.067Z,-0.79
2022-12-08T02:58:42.814Z,-3.01
2022-12-08T03:01:02.264Z,-0.95
2022-12-08T03:03:18.329Z,-4.92
2022-12-08T03:05:49.152Z,-0.88
2022-12-08T03:08:02.416Z,-2.28
2022-12-08T03:10:12.236Z,-7.92
2022-12-08T03:12:21.157Z,-1.28
2022-12-08T03:14:24.451Z,-3.47
2022-12-08T03:16:31.243Z,-3.36
2022-12-08T03:18:40.323Z,-2.30
2022-12-08T03:20:47.193Z,-6.17
2022-12-08T03:22:54.972Z,-5.31
2022-12-08T03:24:59.036Z,-3.07
2022-12-08T03:27:05.562Z,-1.56
2022-12-08T03:29:08.938Z,-3.31
2022-12-08T03:31:14.556Z,-0.94
2022-12-08T03:33:24.886Z,-3.08
2022-12-08T03:35:32.652Z,-1.04
2022-12-08T03:37:41.119Z,-3.52
2022-12-08T03:39:44.423Z,-3.27
2022-12-08T03:41:48.705Z,-1.09
2022-12-08T03:43:55.518Z,-1.02
2022-12-08T03:45:58.704Z,-3.20
2022-12-08T03:48:01.865Z,-1.17
2022-12-08T03:50:06.576Z,-1.13
2022-12-08T03:52:10.106Z,-3.02
2022-12-08T03:54:14.744Z,-1.10
2022-12-08T03:56:25.499Z,-6.35
2022-12-08T03:58:34.330Z,-3.35
2022-12-08T04:00:40.239Z,-3.43
2022-12-08T04:02:43.400Z,-1.23
2022-12-08T04:04:46.600Z,-3.57
2022-12-08T04:06:50.470Z,-1.19
2022-12-08T04:08:53.957Z,-1.21
2022-12-08T04:10:58.604Z,-5.19
2022-12-08T04:13:01.742Z,-3.34
2022-12-08T04:15:05.869Z,-3.57
2022-12-08T04:17:09.013Z,-3.15
2022-12-08T04:19:12.231Z,-5.30
2022-12-08T04:21:16.289Z,-1.88
2022-12-08T04:23:19.428Z,-16.32
2022-12-08T04:25:22.564Z,-3.97
2022-12-08T04:27:27.015Z,-7.50
2022-12-08T04:29:30.173Z,-1.58
2022-12-08T04:31:33.722Z,-1.49
2022-12-08T04:33:37.230Z,-1.46
2022-12-08T04:35:40.389Z,-1.50
2022-12-08T04:37:44.252Z,-1.56
2022-12-08T04:39:47.444Z,-5.47
2022-12-08T04:41:50.555Z,-4.37
2022-12-08T04:43:55.018Z,-5.34
2022-12-08T04:45:58.255Z,-6.61
2022-12-08T04:48:03.028Z,-3.43
2022-12-08T04:50:08.195Z,-3.74
2022-12-08T04:52:11.356Z,-1.30
2022-12-08T04:54:14.517Z,-1.37
2022-12-08T04:56:19.779Z,-1.45
2022-12-08T04:58:23.300Z,-3.70
2022-12-08T05:00:28.066Z,-1.50
2022-12-08T05:02:31.286Z,-7.54
2022-12-08T05:04:34.786Z,-3.83
2022-12-08T05:06:38.009Z,-5.36
2022-12-08T05:08:41.376Z,-3.49
2022-12-08T05:10:44.642Z,-2.68
2022-12-08T05:12:47.951Z,-3.69
2022-12-08T05:14:51.238Z,-8.27
2022-12-08T05:16:55.938Z,-7.93
2022-12-08T05:18:59.114Z,-3.43
2022-12-08T05:21:02.592Z,-4.35
2022-12-08T05:23:05.853Z,-1.36
2022-12-08T05:25:09.799Z,-1.58
2022-12-08T05:27:12.974Z,-4.55
2022-12-08T05:29:16.321Z,-2.54
2022-12-08T05:31:20.618Z,-2.62
2022-12-08T05:33:25.275Z,-7.57
2022-12-08T05:35:28.494Z,-4.01
2022-12-08T05:37:31.747Z,-3.52
2022-12-08T05:39:35.212Z,-5.25
2022-12-08T05:41:38.419Z,-4.65
2022-12-08T05:43:41.630Z,-7.30
2022-12-08T05:45:45.051Z,-2.98
2022-12-08T05:47:48.284Z,-1.79
2022-12-08T05:49:52.813Z,-2.12
2022-12-08T05:51:55.980Z,-4.88
2022-12-08T05:53:59.737Z,-3.41
2022-12-08T05:56:02.916Z,-2.95
2022-12-08T05:58:07.968Z,-9.76
2022-12-08T06:00:12.853Z,-1.57
2022-12-08T06:02:16.136Z,-3.52
2022-12-08T06:04:19.454Z,-1.48
2022-12-08T06:06:24.157Z,-3.86
2022-12-08T06:08:27.438Z,-3.76
2022-12-08T06:10:30.737Z,-6.86
2022-12-08T06:12:34.406Z,-3.17
2022-12-08T06:14:37.663Z,-3.37
2022-12-08T06:16:41.223Z,-5.30
2022-12-08T06:18:44.657Z,-1.24
2022-12-08T06:20:47.949Z,-3.48
2022-12-08T06:22:52.533Z,-1.20
2022-12-08T06:24:55.771Z,-2.06
2022-12-08T06:26:59.033Z,-3.26
2022-12-08T06:29:02.192Z,-2.31
2022-12-08T06:31:11.030Z,-2.27
2022-12-08T06:33:14.196Z,-10.38
2022-12-08T06:35:17.733Z,-3.87
2022-12-08T06:37:21.169Z,-2.55
2022-12-08T06:39:25.807Z,-10.75
2022-12-08T06:41:29.091Z,-1.57
2022-12-08T06:43:33.171Z,-1.60
2022-12-08T06:45:36.338Z,-1.62
2022-12-08T06:47:39.510Z,-3.92
2022-12-08T06:49:42.672Z,-1.69
2022-12-08T06:51:45.845Z,-6.81
2022-12-08T06:53:49.300Z,-2.97
2022-12-08T06:55:59.761Z,-2.91
2022-12-08T06:58:03.287Z,-1.64
2022-12-08T07:00:08.780Z,-6.82
2022-12-08T07:02:12.691Z,-1.60
2022-12-08T07:04:16.253Z,-5.37
2022-12-08T07:06:24.141Z,-3.96
2022-12-08T07:08:27.417Z,-5.90
2022-12-08T07:10:30.740Z,-4.87
2022-12-08T07:12:35.283Z,-5.91
2022-12-08T07:14:38.459Z,-2.94
2022-12-08T07:16:41.638Z,-1.54
2022-12-08T07:18:44.967Z,-1.54
2022-12-08T07:20:48.186Z,-7.67
2022-12-08T07:22:51.636Z,-4.21
2022-12-08T07:24:54.900Z,-1.62
2022-12-08T07:26:57.997Z,-2.34
2022-12-08T07:29:02.805Z,-1.46
2022-12-08T07:31:07.225Z,-3.87
2022-12-08T07:33:10.494Z,-1.48
2022-12-08T07:35:14.069Z,-1.42
2022-12-08T07:37:17.393Z,-3.79
2022-12-08T07:39:20.628Z,-3.62
2022-12-08T07:41:26.458Z,-1.39
2022-12-08T07:43:30.162Z,-5.59
2022-12-08T07:45:34.811Z,-1.31
2022-12-08T07:47:38.182Z,-3.55
2022-12-08T07:49:41.635Z,-2.96
2022-12-08T07:51:44.880Z,-6.55
2022-12-08T07:53:54.225Z,-2.35
2022-12-08T07:55:58.358Z,-2.38
2022-12-08T07:58:01.710Z,-1.33
2022-12-08T08:00:07.011Z,-2.99
2022-12-08T08:02:25.228Z,-7.94
2022-12-08T08:04:29.360Z,-2.61
2022-12-08T08:06:34.364Z,-5.80
2022-12-08T08:08:37.559Z,-5.97
2022-12-08T08:10:40.809Z,-2.13
2022-12-08T08:12:44.150Z,-0.76
2022-12-08T08:14:47.317Z,-2.52
2022-12-08T08:16:50.659Z,-1.93
2022-12-08T08:18:55.422Z,-7.72
2022-12-08T08:21:06.694Z,-5.14
2022-12-08T08:23:21.852Z,-2.56
2022-12-08T08:25:25.122Z,-3.23
2022-12-08T08:27:28.435Z,-1.77
2022-12-08T08:29:31.681Z,-0.53
2022-12-08T08:31:35.022Z,-0.55
2022-12-08T08:33:38.261Z,-0.56
2022-12-08T08:35:43.251Z,-5.98
2022-12-08T08:37:49.099Z,-1.70
2022-12-08T08:39:52.906Z,-1.48
2022-12-08T08:41:56.174Z,-7.04
2022-12-08T08:43:59.659Z,-2.37
2022-12-08T08:46:03.602Z,-0.97
2022-12-08T08:48:07.261Z,-2.13
2022-12-08T08:50:11.072Z,0.02
2022-12-08T08:52:15.679Z,-8.70
2022-12-08T08:54:19.293Z,-0.84
2022-12-08T08:56:22.767Z,0.24
2022-12-08T08:58:26.043Z,0.40
2022-12-08T09:00:29.247Z,-1.99
2022-12-08T09:02:32.763Z,-6.05
2022-12-08T09:04:36.106Z,0.72
2022-12-08T09:06:39.536Z,-1.20
2022-12-08T09:08:45.821Z,-1.32
2022-12-08T09:10:49.120Z,-4.04
2022-12-08T09:12:52.507Z,-4.29
2022-12-08T09:14:55.795Z,-8.51
2022-12-08T09:16:58.982Z,-3.13
2022-12-08T09:19:02.399Z,1.29
2022-12-08T09:21:07.020Z,-9.52
2022-12-08T09:23:10.250Z,1.24
2022-12-08T09:25:15.200Z,1.35
2022-12-08T09:27:18.510Z,-4.07
2022-12-08T09:29:21.901Z,1.45
2022-12-08T09:31:25.792Z,-2.08
2022-12-08T09:33:29.053Z,-6.92
2022-12-08T09:35:32.236Z,-3.80
2022-12-08T09:37:35.566Z,-0.02
2022-12-08T09:39:38.806Z,1.89
2022-12-08T09:41:50.736Z,-1.50
2022-12-08T09:44:06.734Z,-0.08
2022-12-08T09:46:15.168Z,-1.59
2022-12-08T09:48:24.079Z,2.26
2022-12-08T09:50:35.549Z,0.23
2022-12-08T09:52:45.582Z,2.25
2022-12-08T09:54:48.804Z,0.40
2022-12-08T09:56:56.437Z,2.61
2022-12-08T09:59:05.022Z,0.19
2022-12-08T10:01:10.983Z,2.87
2022-12-08T10:03:16.826Z,1.94
2022-12-08T10:05:21.804Z,-0.81
2022-12-08T10:07:38.301Z,3.33
2022-12-08T10:09:47.819Z,1.66
2022-12-08T10:12:00.837Z,-5.14
2022-12-08T10:14:19.287Z,-1.28
2022-12-08T10:16:35.192Z,2.57
2022-12-08T10:18:42.612Z,3.96
2022-12-08T10:20:49.728Z,3.96
2022-12-08T10:22:58.340Z,2.29
2022-12-08T10:25:09.964Z,4.20
2022-12-08T10:27:15.056Z,3.19
2022-12-08T10:29:21.995Z,4.38
2022-12-08T10:31:28.750Z,4.54
2022-12-08T10:33:34.312Z,4.57
2022-12-08T10:35:46.913Z,2.13
2022-12-08T10:37:59.841Z,3.12
2022-12-08T10:40:19.232Z,3.75
2022-12-08T10:42:47.761Z,5.22
2022-12-08T10:45:20.368Z,5.36
2022-12-08T10:47:26.887Z,4.16
2022-12-08T10:49:33.527Z,-0.89
2022-12-08T10:51:40.306Z,3.43
2022-12-08T10:53:47.942Z,5.14
2022-12-08T10:55:53.381Z,3.59
2022-12-08T10:58:03.062Z,5.35
2022-12-08T11:00:27.592Z,1.10
2022-12-08T11:02:31.454Z,-0.60
2022-12-08T11:04:38.159Z,2.91
2022-12-08T11:06:42.812Z,5.38
2022-12-08T11:08:51.824Z,1.94
2022-12-08T11:10:55.127Z,5.67
2022-12-08T11:13:03.717Z,5.34
2022-12-08T11:15:08.541Z,5.06
2022-12-08T11:17:16.678Z,4.94
2022-12-08T11:19:29.172Z,4.22
2022-12-08T11:21:42.928Z,4.92
2022-12-08T11:23:51.836Z,1.13
2022-12-08T11:26:02.800Z,0.90
2022-12-08T11:28:12.412Z,2.76
2022-12-08T11:30:20.359Z,1.11
2022-12-08T11:32:24.273Z,2.12
2022-12-08T11:34:35.109Z,4.92
2022-12-08T11:36:39.383Z,4.89
2022-12-08T11:38:45.885Z,2.43
2022-12-08T11:40:51.781Z,3.53
2022-12-08T11:43:10.394Z,2.50
2022-12-08T11:45:25.312Z,4.65
2022-12-08T11:48:00.740Z,3.79
2022-12-08T11:50:23.594Z,3.78
2022-12-08T11:52:42.185Z,4.66
2022-12-08T11:54:53.155Z,1.59
2022-12-08T11:57:00.217Z,2.72
2022-12-08T11:59:18.183Z,1.54
2022-12-08T12:01:25.204Z,-3.13
2022-12-08T12:03:33.730Z,-1.61
2022-12-08T12:06:09.230Z,3.38
2022-12-08T12:08:33.921Z,3.80
2022-12-08T12:10:55.840Z,1.49
2022-12-08T12:13:25.310Z,1.69
2022-12-08T12:16:27.210Z,3.93
2022-12-08T12:18:39.013Z,4.06
2022-12-08T12:20:51.395Z,3.77
2022-12-08T12:23:04.880Z,6.03
2022-12-08T12:25:20.136Z,6.64
2022-12-08T12:27:33.518Z,6.98
2022-12-08T12:29:39.801Z,6.23
2022-12-08T12:31:50.930Z,7.38
2022-12-08T12:34:07.392Z,7.56
2022-12-08T12:36:12.367Z,7.63
2022-12-08T12:38:45.086Z,7.03
2022-12-08T12:40:57.383Z,7.94
2022-12-08T12:43:25.701Z,5.18
2022-12-08T12:45:36.733Z,7.14
2022-12-08T12:47:55.935Z,2.09
2022-12-08T12:50:12.893Z,6.98
2022-12-08T12:52:46.417Z,8.61
2022-12-08T12:55:25.336Z,7.94
2022-12-08T12:57:38.847Z,8.71
2022-12-08T12:59:53.235Z,7.69
2022-12-08T13:01:59.159Z,8.21
2022-12-08T13:04:13.513Z,8.10
2022-12-08T13:06:34.183Z,7.85
2022-12-08T13:08:40.569Z,7.42
2022-12-08T13:11:01.174Z,6.98
2022-12-08T13:13:16.446Z,5.82
2022-12-08T13:15:21.531Z,3.81
2022-12-08T13:17:30.186Z,0.99
2022-12-08T13:19:37.368Z,6.33
2022-12-08T13:21:41.267Z,6.28
2022-12-08T13:23:47.511Z,5.84
2022-12-08T13:26:11.638Z,5.63
2022-12-08T13:28:25.303Z,5.96
2022-12-08T13:30:46.746Z,5.69
2022-12-08T13:33:17.694Z,5.70
2022-12-08T13:35:31.428Z,5.73
2022-12-08T13:37:56.552Z,5.77
2022-12-08T13:40:09.582Z,4.81
2022-12-08T13:42:22.740Z,4.60
2022-12-08T13:47:32.199Z,5.65
2022-12-08T13:51:51.241Z,3.20
2022-12-08T13:57:21.853Z,4.12
2022-12-08T13:59:30.559Z,4.51
2022-12-08T14:01:45.828Z,3.99
2022-12-08T14:04:22.193Z,3.32
2022-12-08T14:06:19.332Z,2.78
2022-12-08T14:08:58.295Z,4.91
2022-12-08T14:11:05.266Z,3.46
2022-12-08T14:13:13.811Z,4.73
2022-12-08T14:15:21.062Z,2.53
2022-12-08T14:17:25.707Z,4.61
2022-12-08T14:19:31.565Z,-0.54
2022-12-08T14:21:36.413Z,4.58
2022-12-08T14:23:45.548Z,-1.33
2022-12-08T14:25:49.576Z,-3.24
2022-12-08T14:28:00.962Z,2.68
2022-12-08T14:30:08.184Z,3.37
2022-12-08T14:32:27.671Z,0.36
2022-12-08T14:34:32.951Z,2.68
2022-12-08T14:36:36.507Z,-1.22
2022-12-08T14:38:41.280Z,4.32
2022-12-08T14:40:45.928Z,4.33
2022-12-08T14:42:56.764Z,4.17
2022-12-08T14:45:06.558Z,2.70
2022-12-08T14:49:39.950Z,4.10
2022-12-08T14:51:43.715Z,3.08
2022-12-08T14:53:55.294Z,4.08
2022-12-08T14:55:59.272Z,-0.91
2022-12-08T14:58:02.997Z,1.59
2022-12-08T15:00:12.419Z,-0.15
2022-12-08T15:02:29.241Z,3.78
2022-12-08T15:04:32.975Z,2.86
2022-12-08T15:06:37.031Z,2.71
2022-12-08T15:08:58.801Z,2.52
2022-12-08T15:11:32.733Z,3.60
2022-12-08T15:13:36.083Z,-2.85
2022-12-08T15:15:51.636Z,3.55
2022-12-08T15:18:05.302Z,3.53
2022-12-08T15:20:33.413Z,2.30
2022-12-08T15:22:38.540Z,3.41
2022-12-08T15:24:43.272Z,3.44
2022-12-08T15:26:49.163Z,-1.46
2022-12-08T15:28:53.337Z,3.49
2022-12-08T15:30:57.371Z,-4.44
2022-12-08T15:33:00.648Z,-0.07
2022-12-08T15:35:03.970Z,1.43
2022-12-08T15:37:21.274Z,-3.24
2022-12-08T15:39:35.000Z,-4.57
2022-12-08T15:41:39.880Z,-0.43
2022-12-08T15:43:43.458Z,3.30
2022-12-08T15:45:57.968Z,3.26
2022-12-08T15:48:02.395Z,3.26
2022-12-08T15:50:07.570Z,-0.51
2022-12-08T15:52:16.465Z,3.26
2022-12-08T15:54:20.240Z,3.28
2022-12-08T15:56:28.135Z,-0.94
2022-12-08T16:00:57.429Z,-0.85
2022-12-08T16:03:27.632Z,-2.20
2022-12-08T16:06:06.955Z,1.21
2022-12-08T16:07:57.582Z,1.53
2022-12-08T16:10:01.355Z,0.99
2022-12-08T16:12:23.925Z,3.10
2022-12-08T16:16:52.150Z,1.28
2022-12-08T16:18:55.543Z,0.99
2022-12-08T16:21:09.593Z,-0.87
2022-12-08T16:23:41.825Z,2.36
2022-12-08T16:26:16.799Z,0.45
2022-12-08T16:33:07.693Z,3.27
2022-12-08T16:35:12.089Z,3.48
2022-12-08T16:37:16.292Z,2.07
2022-12-08T16:39:18.994Z,3.68
2022-12-08T16:41:39.586Z,3.61
2022-12-08T16:43:42.529Z,1.95
2022-12-08T16:45:45.446Z,2.10
2022-12-08T16:47:49.281Z,2.04
2022-12-08T16:49:53.337Z,1.97
2022-12-08T16:51:56.115Z,3.06
2022-12-08T16:53:59.038Z,3.11
2022-12-08T16:56:01.809Z,3.10
2022-12-08T16:58:04.563Z,2.69
2022-12-08T17:00:09.528Z,3.16
2022-12-08T17:02:16.265Z,1.89
2022-12-08T17:04:34.648Z,2.66
2022-12-08T17:06:38.806Z,2.87
2022-12-08T17:08:42.389Z,2.96
2022-12-08T17:11:05.075Z,2.95
2022-12-08T17:13:07.759Z,0.79
2022-12-08T17:15:13.290Z,2.99
2022-12-08T17:17:15.960Z,3.00
2022-12-08T17:19:20.820Z,-5.27
2022-12-08T17:21:23.575Z,3.02
2022-12-08T17:23:27.629Z,3.06
2022-12-08T17:25:30.325Z,3.06
2022-12-08T17:29:02.112Z,-2.13
2022-12-08T17:31:11.552Z,3.05
2022-12-08T17:33:14.761Z,2.16
2022-12-08T17:35:18.224Z,1.75
2022-12-08T17:37:22.496Z,3.08
2022-12-08T17:39:26.022Z,1.08
2022-12-08T17:41:30.564Z,-0.01
2022-12-08T17:43:34.365Z,1.84
2022-12-08T17:45:42.422Z,2.04
2022-12-08T17:47:46.713Z,2.92
2022-12-08T17:49:50.050Z,1.51
2022-12-08T17:51:55.699Z,1.86
2022-12-08T17:53:58.867Z,2.86
2022-12-08T17:56:02.123Z,-1.54
2022-12-08T17:58:05.634Z,2.15
2022-12-08T18:00:12.274Z,2.88
2022-12-08T18:02:16.844Z,-2.62
2022-12-08T18:04:21.176Z,-3.78
2022-12-08T18:06:28.141Z,0.98
2022-12-08T18:08:34.123Z,2.78
2022-12-08T18:10:38.676Z,2.86
2022-12-08T18:12:41.907Z,1.47
2022-12-08T18:14:46.177Z,2.86
2022-12-08T18:16:49.608Z,2.84
2022-12-08T18:18:54.421Z,1.83
2022-12-08T18:20:57.585Z,0.88
2022-12-08T18:23:01.040Z,2.76
2022-12-08T18:25:04.718Z,2.74
2022-12-08T18:27:07.960Z,2.66
2022-12-08T18:29:11.180Z,2.65
2022-12-08T18:31:17.631Z,0.71
2022-12-08T18:33:20.990Z,2.35
2022-12-08T18:35:26.911Z,2.75
2022-12-08T18:37:30.136Z,2.04
2022-12-08T18:39:34.429Z,-0.93
2022-12-08T18:41:37.595Z,2.78
2022-12-08T18:43:41.350Z,2.78
2022-12-08T18:45:44.563Z,2.74
2022-12-08T18:47:47.837Z,0.79
2022-12-08T18:49:51.171Z,2.73
2022-12-08T18:51:55.804Z,0.05
2022-12-08T18:53:59.740Z,2.71
2022-12-08T18:56:02.924Z,2.72
2022-12-08T18:58:06.132Z,0.73
2022-12-08T19:00:12.507Z,2.57
2022-12-08T19:02:16.680Z,1.10
2022-12-08T19:04:28.236Z,2.17
2022-12-08T19:06:32.758Z,1.77
2022-12-08T19:08:37.397Z,1.34
2022-12-08T19:10:40.712Z,2.10
2022-12-08T19:12:43.936Z,2.11
2022-12-08T19:14:47.182Z,2.02
2022-12-08T19:16:50.811Z,1.97
2022-12-08T19:18:54.060Z,2.10
2022-12-08T19:20:57.854Z,2.16
2022-12-08T19:23:01.094Z,1.78
2022-12-08T19:25:06.927Z,2.04
2022-12-08T19:27:10.169Z,2.07
2022-12-08T19:29:14.413Z,-3.84
2022-12-08T19:31:17.711Z,0.94
2022-12-08T19:33:21.166Z,-1.12
2022-12-08T19:35:24.420Z,2.00
2022-12-08T19:37:27.965Z,1.93
2022-12-08T19:39:48.848Z,1.88
2022-12-08T19:42:10.733Z,-2.86
2022-12-08T19:44:39.875Z,-0.32
2022-12-08T19:46:43.452Z,1.82
2022-12-08T19:48:47.184Z,1.84
2022-12-08T19:50:50.457Z,1.83
2022-12-08T19:52:54.786Z,1.83
2022-12-08T19:54:58.054Z,0.46
2022-12-08T19:57:02.890Z,-0.19
2022-12-08T19:59:06.461Z,1.45
2022-12-08T20:01:09.791Z,1.37
2022-12-08T20:03:16.894Z,-1.03
2022-12-08T20:05:20.508Z,1.37
2022-12-08T20:07:23.729Z,1.44
2022-12-08T20:09:27.079Z,0.46
2022-12-08T20:11:30.295Z,0.99
2022-12-08T20:13:45.579Z,0.46
2022-12-08T20:15:48.967Z,1.45
2022-12-08T20:17:52.224Z,-0.46
2022-12-08T20:19:55.450Z,1.37
2022-12-08T20:21:58.651Z,-3.71
2022-12-08T20:24:01.886Z,1.32
2022-12-08T20:26:07.304Z,1.28
2022-12-08T20:28:11.301Z,-0.15
2022-12-08T20:30:17.399Z,0.43
2022-12-08T20:32:20.797Z,1.20
2022-12-08T20:34:23.986Z,1.09
2022-12-08T20:36:27.244Z,0.94
2022-12-08T20:38:31.217Z,0.90
2022-12-08T20:40:34.405Z,0.80
2022-12-08T20:42:37.638Z,-0.14
2022-12-08T20:44:44.166Z,-2.74
2022-12-08T20:46:49.757Z,-0.29
2022-12-08T20:48:53.130Z,-3.20
2022-12-08T20:50:56.441Z,0.28
2022-12-08T20:53:00.204Z,-0.37
2022-12-08T20:55:03.662Z,0.67
2022-12-08T20:57:07.524Z,0.62
2022-12-08T20:59:16.833Z,-0.32
2022-12-08T21:01:23.500Z,-1.17
2022-12-08T21:03:28.123Z,0.63
2022-12-08T21:05:31.714Z,-0.27
2022-12-08T21:07:35.195Z,0.55
2022-12-08T21:09:38.850Z,-1.87
2022-12-08T21:11:42.172Z,0.49
2022-12-08T21:13:46.862Z,-2.05
2022-12-08T21:15:50.418Z,-6.06
2022-12-08T21:17:54.814Z,-2.36
2022-12-08T21:19:59.588Z,-1.86
2022-12-08T21:22:03.114Z,-2.32
2022-12-08T21:24:07.831Z,0.26
2022-12-08T21:26:13.088Z,0.21
2022-12-08T21:28:16.587Z,0.16
2022-12-08T21:30:20.044Z,0.13
2022-12-08T21:32:28.674Z,0.07
2022-12-08T21:34:34.222Z,-0.04
2022-12-08T21:36:39.119Z,-0.05
2022-12-08T21:38:43.625Z,-6.50
2022-12-08T21:40:46.884Z,-0.07
2022-12-08T21:42:50.478Z,-0.03
2022-12-08T21:44:53.690Z,-2.27
2022-12-08T21:46:56.889Z,-0.09
2022-12-08T21:49:00.331Z,-0.12
2022-12-08T21:51:06.132Z,-0.17
2022-12-08T21:53:10.874Z,-0.29
2022-12-08T21:55:15.702Z,-0.91
2022-12-08T21:57:19.276Z,-0.37
2022-12-08T21:59:22.640Z,-2.71
2022-12-08T22:01:26.149Z,-2.33
2022-12-08T22:03:29.954Z,-0.38
2022-12-08T22:05:34.485Z,-7.21
2022-12-08T22:07:40.447Z,-0.48
2022-12-08T22:09:45.337Z,-0.42
2022-12-08T22:11:48.609Z,-1.67
2022-12-08T22:13:51.754Z,-0.49
2022-12-08T22:15:58.307Z,-0.55
2022-12-08T22:18:01.585Z,-0.57
2022-12-08T22:20:07.478Z,-2.30
2022-12-08T22:22:10.981Z,-0.53
2022-12-08T22:24:14.142Z,-0.52
2022-12-08T22:26:18.922Z,-0.47
2022-12-08T22:28:22.233Z,-2.35
2022-12-08T22:30:25.269Z,-9.40
2022-12-08T22:32:28.641Z,-0.65
2022-12-08T22:34:31.785Z,-2.93
2022-12-08T22:36:35.072Z,-0.66
2022-12-08T22:38:38.318Z,-2.31
2022-12-08T22:40:42.015Z,-0.73
2022-12-08T22:42:46.457Z,-0.77
2022-12-08T22:44:49.498Z,-2.49
2022-12-08T22:46:52.610Z,-6.41
2022-12-08T22:48:56.221Z,-0.81
2022-12-08T22:51:00.410Z,-1.64
2022-12-08T22:53:03.771Z,-0.80
2022-12-08T22:55:08.638Z,-0.79
2022-12-08T22:57:11.888Z,-0.78
2022-12-08T22:59:16.542Z,-0.82
2022-12-08T23:01:29.060Z,-0.78
2022-12-08T23:03:33.219Z,-0.78
2022-12-08T23:05:38.857Z,-0.80
2022-12-08T23:07:42.336Z,-0.79
2022-12-08T23:09:45.803Z,-0.80
2022-12-08T23:11:48.993Z,-0.78
2022-12-08T23:13:52.616Z,-0.82
2022-12-08T23:15:57.129Z,-0.82
2022-12-08T23:18:00.713Z,-0.78
2022-12-08T23:20:04.139Z,-0.77
2022-12-08T23:22:07.600Z,-0.71
2022-12-08T23:24:10.830Z,-0.71
2022-12-08T23:26:19.816Z,-0.65
2022-12-08T23:28:23.126Z,-0.66
2022-12-08T23:30:26.707Z,-0.62
2022-12-08T23:32:31.260Z,-0.66
2022-12-08T23:34:34.501Z,-0.66
2022-12-08T23:36:38.072Z,-0.69
2022-12-08T23:38:41.252Z,-0.67
2022-12-08T23:40:44.702Z,-1.68
2022-12-08T23:42:48.003Z,-1.23
2022-12-08T23:44:51.268Z,-6.55
2022-12-08T23:46:54.566Z,-0.73
2022-12-08T23:48:59.317Z,-7.13
2022-12-08T23:51:02.767Z,-0.83
2022-12-08T23:53:05.895Z,-0.88
2022-12-08T23:55:11.113Z,-0.81
2022-12-08T23:57:14.371Z,-3.82
2022-12-08T23:59:17.676Z,-0.79
